createdAt,value
2018-08-08T00:00:00.222Z,11.10
2018-08-08T00:02:28.794Z,12.87
2018-08-08T00:04:57.329Z,11.43
2018-08-08T00:07:25.890Z,10.13
2018-08-08T00:09:54.430Z,13.50
2018-08-08T00:12:22.989Z,13.57
2018-08-08T00:14:51.526Z,11.70
2018-08-08T00:17:20.085Z,11.47
2018-08-08T00:19:48.750Z,10.90
2018-08-08T00:22:17.308Z,9.10
2018-08-08T00:24:45.894Z,9.50
2018-08-08T00:27:14.445Z,10.57
2018-08-08T00:29:43.005Z,10.87
2018-08-08T00:32:11.557Z,15.30
2018-08-08T00:34:40.117Z,12.30
2018-08-08T00:37:08.670Z,11.00
2018-08-08T00:39:37.237Z,10.53
2018-08-08T00:42:05.808Z,21.90
2018-08-08T00:44:34.346Z,48.03
2018-08-08T00:47:02.903Z,30.33
2018-08-08T00:49:31.477Z,19.40
2018-08-08T00:52:00.054Z,17.00
2018-08-08T00:54:28.600Z,13.07
2018-08-08T00:56:57.158Z,11.97
2018-08-08T00:59:25.737Z,10.80
2018-08-08T01:01:54.290Z,11.07
2018-08-08T01:04:22.857Z,11.27
2018-08-08T01:06:51.397Z,13.53
2018-08-08T01:09:19.979Z,15.40
2018-08-08T01:11:48.516Z,14.03
2018-08-08T01:14:17.096Z,34.37
2018-08-08T01:16:45.643Z,28.33
2018-08-08T01:19:14.185Z,13.63
2018-08-08T01:21:42.717Z,24.37
2018-08-08T01:24:11.348Z,32.87
2018-08-08T01:26:39.888Z,23.20
2018-08-08T01:29:08.445Z,18.47
2018-08-08T01:31:36.983Z,17.10
2018-08-08T01:34:05.653Z,17.20
2018-08-08T01:36:34.197Z,14.03
2018-08-08T01:39:02.847Z,12.83
2018-08-08T01:41:31.401Z,12.63
2018-08-08T01:43:59.965Z,12.83
2018-08-08T01:46:28.506Z,13.20
2018-08-08T01:48:57.095Z,15.17
2018-08-08T01:51:25.635Z,12.20
2018-08-08T01:53:54.205Z,17.47
2018-08-08T01:56:22.784Z,17.87
2018-08-08T01:58:51.378Z,21.03
2018-08-08T02:01:19.933Z,17.10
2018-08-08T02:03:48.552Z,16.30
2018-08-08T02:06:17.074Z,16.27
2018-08-08T02:08:45.642Z,65.23
2018-08-08T02:11:14.219Z,16.73
2018-08-08T02:13:42.813Z,14.60
2018-08-08T02:16:11.349Z,13.90
2018-08-08T02:18:39.901Z,12.50
2018-08-08T02:21:08.527Z,13.93
2018-08-08T02:23:37.092Z,13.70
2018-08-08T02:26:05.643Z,15.40
2018-08-08T02:28:34.205Z,14.40
2018-08-08T02:31:02.752Z,15.13
2018-08-08T02:33:31.329Z,21.70
2018-08-08T02:36:01.745Z,17.70
2018-08-08T02:38:30.821Z,19.03
2018-08-08T02:40:59.474Z,17.33
2018-08-08T02:43:28.040Z,13.90
2018-08-08T02:45:56.565Z,14.43
2018-08-08T02:48:25.169Z,17.57
2018-08-08T02:50:53.721Z,15.17
2018-08-08T02:53:22.292Z,18.80
2018-08-08T02:55:50.854Z,14.60
2018-08-08T02:58:19.418Z,18.20
2018-08-08T03:00:47.988Z,16.07
2018-08-08T03:03:16.574Z,21.10
2018-08-08T03:05:45.128Z,20.87
2018-08-08T03:08:13.667Z,15.23
2018-08-08T03:10:42.238Z,10.33
2018-08-08T03:13:10.798Z,12.57
2018-08-08T03:15:39.353Z,14.43
2018-08-08T03:18:08.562Z,14.13
2018-08-08T03:20:37.167Z,10.17
2018-08-08T03:23:05.817Z,26.40
2018-08-08T03:25:34.379Z,14.60
2018-08-08T03:28:03.545Z,12.53
2018-08-08T03:30:32.131Z,14.93
2018-08-08T03:33:00.696Z,13.43
2018-08-08T03:35:29.287Z,28.87
2018-08-08T03:37:57.865Z,21.40
2018-08-08T03:40:26.414Z,17.90
2018-08-08T03:42:54.970Z,16.93
2018-08-08T03:45:23.521Z,18.80
2018-08-08T03:47:52.094Z,15.40
2018-08-08T03:50:20.679Z,12.10
2018-08-08T03:52:50.194Z,13.77
2018-08-08T03:55:18.790Z,11.43
2018-08-08T03:57:47.384Z,17.40
2018-08-08T04:00:20.334Z,17.33
2018-08-08T04:02:49.329Z,12.27
2018-08-08T04:05:17.921Z,11.37
2018-08-08T04:07:46.890Z,16.40
2018-08-08T04:10:16.106Z,14.03
2018-08-08T04:12:44.660Z,10.50
2018-08-08T04:15:15.761Z,13.83
2018-08-08T04:17:44.495Z,12.00
2018-08-08T04:20:14.159Z,12.47
2018-08-08T04:22:42.732Z,11.80
2018-08-08T04:25:12.832Z,17.87
2018-08-08T04:27:41.644Z,14.13
2018-08-08T04:30:11.718Z,12.17
2018-08-08T04:32:40.548Z,11.10
2018-08-08T04:35:09.867Z,10.00
2018-08-08T04:37:38.812Z,14.30
2018-08-08T04:40:11.508Z,16.93
2018-08-08T04:42:40.484Z,12.70
2018-08-08T04:45:09.114Z,18.70
2018-08-08T04:47:37.773Z,15.03
2018-08-08T04:50:08.318Z,21.13
2018-08-08T04:52:36.882Z,17.30
2018-08-08T04:55:06.695Z,10.70
2018-08-08T04:57:35.286Z,14.43
2018-08-08T05:00:05.490Z,12.63
2018-08-08T05:02:36.333Z,46.53
2018-08-08T05:05:05.899Z,17.17
2018-08-08T05:07:34.735Z,13.80
2018-08-08T05:10:03.449Z,18.23
2018-08-08T05:12:37.698Z,12.80
2018-08-08T05:15:14.426Z,26.67
2018-08-08T05:17:47.213Z,14.90
2018-08-08T05:20:16.297Z,14.53
2018-08-08T05:22:45.785Z,11.37
2018-08-08T05:25:14.804Z,12.50
2018-08-08T05:27:44.414Z,15.20
2018-08-08T05:30:14.965Z,12.60
2018-08-08T05:32:43.542Z,13.20
2018-08-08T05:35:12.764Z,13.63
2018-08-08T05:37:41.386Z,11.30
2018-08-08T05:40:17.575Z,13.07
2018-08-08T05:42:46.956Z,11.77
2018-08-08T05:45:15.894Z,12.33
2018-08-08T05:47:46.039Z,11.17
2018-08-08T05:50:14.590Z,13.93
2018-08-08T05:52:43.442Z,12.23
2018-08-08T05:55:13.410Z,12.07
2018-08-08T05:57:41.995Z,13.80
2018-08-08T06:00:15.297Z,12.20
2018-08-08T06:02:44.085Z,12.73
2018-08-08T06:05:12.949Z,17.43
2018-08-08T06:07:41.500Z,12.80
2018-08-08T06:10:10.319Z,13.03
2018-08-08T06:12:39.184Z,13.20
2018-08-08T06:15:14.185Z,10.47
2018-08-08T06:17:42.732Z,11.33
2018-08-08T06:20:14.073Z,9.80
2018-08-08T06:22:43.925Z,13.23
2018-08-08T06:25:13.055Z,15.30
2018-08-08T06:27:42.203Z,19.37
2018-08-08T06:30:16.171Z,13.30
2018-08-08T06:32:44.850Z,23.83
2018-08-08T06:35:14.154Z,15.33
2018-08-08T06:37:42.704Z,14.17
2018-08-08T06:40:12.808Z,12.60
2018-08-08T06:42:42.200Z,14.53
2018-08-08T06:45:12.530Z,15.60
2018-08-08T06:47:42.014Z,13.10
2018-08-08T06:50:11.660Z,15.30
2018-08-08T06:52:40.763Z,12.87
2018-08-08T06:55:13.566Z,14.00
2018-08-08T06:57:42.228Z,11.73
2018-08-08T07:00:17.865Z,12.40
2018-08-08T07:02:46.481Z,12.40
2018-08-08T07:05:16.209Z,18.70
2018-08-08T07:07:44.807Z,13.17
2018-08-08T07:10:13.399Z,12.87
2018-08-08T07:12:42.597Z,16.77
2018-08-08T07:15:13.222Z,100.30
2018-08-08T07:17:41.809Z,25.67
2018-08-08T07:20:13.516Z,30.70
2018-08-08T07:22:43.021Z,14.77
2018-08-08T07:25:13.175Z,16.63
2018-08-08T07:27:42.870Z,29.00
2018-08-08T07:30:14.737Z,14.07
2018-08-08T07:32:43.386Z,13.80
2018-08-08T07:35:13.159Z,18.40
2018-08-08T07:37:42.664Z,17.20
2018-08-08T07:40:12.509Z,25.03
2018-08-08T07:42:43.019Z,13.33
2018-08-08T07:45:14.386Z,19.13
2018-08-08T07:47:43.429Z,13.00
2018-08-08T07:50:13.187Z,14.33
2018-08-08T07:52:42.032Z,13.80
2018-08-08T07:55:11.485Z,18.27
2018-08-08T07:57:40.174Z,16.63
2018-08-08T08:00:22.698Z,16.97
2018-08-08T08:02:52.231Z,22.40
2018-08-08T08:05:21.054Z,16.90
2018-08-08T08:07:50.625Z,24.53
2018-08-08T08:10:19.403Z,13.93
2018-08-08T08:12:48.216Z,13.83
2018-08-08T08:15:17.096Z,21.07
2018-08-08T08:17:45.954Z,23.53
2018-08-08T08:20:16.050Z,11.23
2018-08-08T08:22:45.717Z,19.57
2018-08-08T08:25:14.493Z,19.53
2018-08-08T08:27:43.302Z,13.83
2018-08-08T08:30:17.362Z,13.20
2018-08-08T08:32:46.509Z,15.53
2018-08-08T08:35:14.949Z,20.63
2018-08-08T08:37:44.425Z,22.60
2018-08-08T08:40:14.003Z,15.23
2018-08-08T08:42:43.397Z,13.43
2018-08-08T08:45:12.167Z,14.23
2018-08-08T08:47:40.918Z,15.77
2018-08-08T08:50:10.008Z,14.53
2018-08-08T08:52:40.489Z,13.73
2018-08-08T08:55:09.351Z,12.50
2018-08-08T08:57:38.272Z,15.10
2018-08-08T09:00:09.514Z,14.50
2018-08-08T09:02:38.280Z,16.33
2018-08-08T09:05:07.794Z,15.40
2018-08-08T09:07:36.545Z,15.77
2018-08-08T09:10:06.314Z,15.63
2018-08-08T09:12:35.172Z,14.20
2018-08-08T09:15:04.567Z,15.00
2018-08-08T09:17:33.395Z,13.87
2018-08-08T09:20:02.162Z,14.50
2018-08-08T09:22:30.919Z,14.87
2018-08-08T09:24:59.639Z,15.50
2018-08-08T09:27:28.368Z,15.13
2018-08-08T09:30:03.070Z,13.33
2018-08-08T09:32:31.585Z,21.70
2018-08-08T09:35:00.175Z,15.33
2018-08-08T09:37:28.712Z,17.90
2018-08-08T09:39:57.263Z,11.27
2018-08-08T09:42:26.152Z,12.07
2018-08-08T09:44:54.411Z,20.03
2018-08-08T09:47:23.004Z,20.37
2018-08-08T09:49:51.562Z,9.53
2018-08-08T09:52:20.124Z,9.83
2018-08-08T09:54:48.803Z,14.43
2018-08-08T09:57:17.360Z,14.07
2018-08-08T09:59:45.979Z,13.27
2018-08-08T10:02:19.785Z,14.60
2018-08-08T10:04:48.333Z,15.33
2018-08-08T10:07:16.916Z,16.50
2018-08-08T10:09:45.538Z,15.17
2018-08-08T10:12:14.107Z,13.50
2018-08-08T10:14:42.696Z,16.70
2018-08-08T10:17:11.221Z,15.23
2018-08-08T10:19:39.776Z,11.00
2018-08-08T10:22:08.296Z,13.90
2018-08-08T10:24:36.847Z,15.73
2018-08-08T10:27:05.565Z,15.00
2018-08-08T10:29:34.532Z,17.63
2018-08-08T10:32:03.221Z,12.60
2018-08-08T10:34:31.906Z,16.83
2018-08-08T10:37:00.477Z,15.27
2018-08-08T10:39:29.033Z,13.50
2018-08-08T10:41:57.585Z,16.67
2018-08-08T10:44:26.138Z,53.50
2018-08-08T10:46:54.787Z,47.37
2018-08-08T10:49:23.664Z,24.13
2018-08-08T10:51:52.214Z,16.43
2018-08-08T10:54:21.689Z,19.33
2018-08-08T10:56:50.235Z,24.90
2018-08-08T10:59:18.809Z,16.33
2018-08-08T11:01:47.346Z,22.83
2018-08-08T11:04:15.986Z,14.63
2018-08-08T11:06:44.509Z,15.93
2018-08-08T11:09:13.085Z,17.43
2018-08-08T11:11:41.610Z,27.73
2018-08-08T11:14:10.419Z,17.07
2018-08-08T11:16:39.112Z,14.90
2018-08-08T11:19:08.253Z,16.20
2018-08-08T11:21:37.142Z,19.00
2018-08-08T11:24:05.770Z,15.47
2018-08-08T11:26:34.821Z,15.20
2018-08-08T11:29:03.734Z,14.00
2018-08-08T11:31:32.429Z,21.13
2018-08-08T11:34:01.019Z,22.47
2018-08-08T11:36:29.827Z,21.53
2018-08-08T11:38:59.583Z,22.13
2018-08-08T11:41:28.177Z,55.03
2018-08-08T11:43:56.719Z,19.40
2018-08-08T11:46:25.342Z,13.97
2018-08-08T11:48:53.872Z,24.00
2018-08-08T11:51:22.441Z,28.33
2018-08-08T11:53:50.965Z,20.03
2018-08-08T11:56:19.505Z,15.33
2018-08-08T11:58:48.059Z,24.33
2018-08-08T12:01:16.649Z,22.27
2018-08-08T12:03:45.208Z,15.73
2018-08-08T12:06:13.770Z,29.73
2018-08-08T12:08:42.312Z,26.00
2018-08-08T12:11:10.905Z,21.13
2018-08-08T12:13:39.454Z,17.50
2018-08-08T12:16:08.036Z,23.23
2018-08-08T12:18:36.613Z,25.50
2018-08-08T12:21:05.365Z,27.07
2018-08-08T12:23:34.788Z,26.73
2018-08-08T12:26:03.385Z,35.53
2018-08-08T12:28:31.882Z,25.93
2018-08-08T12:31:00.462Z,25.10
2018-08-08T12:33:29.026Z,39.17
2018-08-08T12:35:57.677Z,24.27
2018-08-08T12:38:26.190Z,25.83
2018-08-08T12:40:54.733Z,34.93
2018-08-08T12:43:23.266Z,24.60
2018-08-08T12:45:51.808Z,42.57
2018-08-08T12:48:20.321Z,23.93
2018-08-08T12:50:48.964Z,25.83
2018-08-08T12:53:17.747Z,19.60
2018-08-08T12:55:46.531Z,40.13
2018-08-08T12:58:15.259Z,26.10
2018-08-08T13:00:44.071Z,29.80
2018-08-08T13:03:12.800Z,24.20
2018-08-08T13:05:41.535Z,19.60
2018-08-08T13:08:10.261Z,21.13
2018-08-08T13:10:38.980Z,11.10
2018-08-08T13:13:07.744Z,12.10
2018-08-08T13:15:36.587Z,11.70
2018-08-08T13:18:05.326Z,41.17
2018-08-08T13:20:34.120Z,19.20
2018-08-08T13:23:02.840Z,22.70
2018-08-08T13:25:31.594Z,19.40
2018-08-08T13:28:00.125Z,12.10
2018-08-08T13:30:28.714Z,11.60
2018-08-08T13:32:57.269Z,19.90
2018-08-08T13:35:25.884Z,17.73
2018-08-08T13:37:54.434Z,14.10
2018-08-08T13:40:22.984Z,16.20
2018-08-08T13:42:51.609Z,10.87
2018-08-08T13:45:20.184Z,16.83
2018-08-08T13:47:48.742Z,14.67
2018-08-08T13:50:17.312Z,13.43
2018-08-08T13:52:45.880Z,13.93
2018-08-08T13:55:16.696Z,12.70
2018-08-08T13:57:45.245Z,16.00
2018-08-08T14:00:13.804Z,27.27
2018-08-08T14:02:42.369Z,14.63
2018-08-08T14:05:10.902Z,15.40
2018-08-08T14:07:39.454Z,15.70
2018-08-08T14:10:08.765Z,13.87
2018-08-08T14:12:37.317Z,17.30
2018-08-08T14:15:06.169Z,15.33
2018-08-08T14:17:34.745Z,28.43
2018-08-08T14:20:03.358Z,20.13
2018-08-08T14:22:31.927Z,13.73
2018-08-08T14:25:00.489Z,23.60
2018-08-08T14:27:29.092Z,48.20
2018-08-08T14:29:57.636Z,69.17
2018-08-08T14:32:26.197Z,38.37
2018-08-08T14:34:54.744Z,15.03
2018-08-08T14:37:23.294Z,17.17
2018-08-08T14:39:51.867Z,13.30
2018-08-08T14:42:20.436Z,12.00
2018-08-08T14:44:48.992Z,15.43
2018-08-08T14:47:17.637Z,14.50
2018-08-08T14:49:46.178Z,11.80
2018-08-08T14:52:14.716Z,10.90
2018-08-08T14:54:43.266Z,10.57
2018-08-08T14:57:11.852Z,11.73
2018-08-08T14:59:40.428Z,12.37
2018-08-08T15:02:09.061Z,8.13
2018-08-08T15:04:38.492Z,13.30
2018-08-08T15:07:07.135Z,10.80
2018-08-08T15:09:35.692Z,33.93
2018-08-08T15:12:04.518Z,25.37
2018-08-08T15:14:33.053Z,24.83
2018-08-08T15:17:01.620Z,19.30
2018-08-08T15:19:30.172Z,11.77
2018-08-08T15:21:58.728Z,58.30
2018-08-08T15:24:27.266Z,20.10
2018-08-08T15:26:55.832Z,9.10
2018-08-08T15:29:24.407Z,14.80
2018-08-08T15:31:53.001Z,41.97
2018-08-08T15:34:21.573Z,30.43
2018-08-08T15:36:50.209Z,87.37
2018-08-08T15:39:18.748Z,207.73
2018-08-08T15:41:47.598Z,186.57
2018-08-08T15:44:16.275Z,194.10
2018-08-08T15:46:44.888Z,199.23
2018-08-08T15:49:13.759Z,92.90
2018-08-08T15:51:42.325Z,217.73
2018-08-08T15:54:10.918Z,106.37
2018-08-08T15:56:39.456Z,105.50
2018-08-08T15:59:08.065Z,148.70
2018-08-08T16:01:36.618Z,151.70
2018-08-08T16:04:05.200Z,105.17
2018-08-08T16:06:33.738Z,93.07
2018-08-08T16:09:09.677Z,68.33
2018-08-08T16:11:38.585Z,164.17
2018-08-08T16:14:08.618Z,93.10
2018-08-08T16:16:37.183Z,37.77
2018-08-08T16:19:05.764Z,26.60
2018-08-08T16:21:34.289Z,26.43
2018-08-08T16:24:02.851Z,35.33
2018-08-08T16:26:31.432Z,46.53
2018-08-08T16:28:59.997Z,43.03
2018-08-08T16:31:28.545Z,24.60
2018-08-08T16:33:57.102Z,12.97
2018-08-08T16:36:25.677Z,13.43
2018-08-08T16:38:54.254Z,18.40
2018-08-08T16:41:22.798Z,20.33
2018-08-08T16:43:51.400Z,19.97
2018-08-08T16:46:20.091Z,46.30
2018-08-08T16:48:48.641Z,19.37
2018-08-08T16:51:18.061Z,27.30
2018-08-08T16:53:49.071Z,164.27
2018-08-08T16:56:17.726Z,26.00
2018-08-08T16:58:46.302Z,27.90
2018-08-08T17:01:14.981Z,21.83
2018-08-08T17:03:45.565Z,18.20
2018-08-08T17:06:16.686Z,17.30
2018-08-08T17:08:47.248Z,18.27
2018-08-08T17:11:19.732Z,31.30
2018-08-08T17:13:49.254Z,30.37
2018-08-08T17:16:17.791Z,44.20
2018-08-08T17:18:46.362Z,41.73
2018-08-08T17:21:14.938Z,51.50
2018-08-08T17:23:43.643Z,15.33
2018-08-08T17:26:12.445Z,41.03
2018-08-08T17:28:42.994Z,31.80
2018-08-08T17:31:12.888Z,17.23
2018-08-08T17:33:42.148Z,50.50
2018-08-08T17:36:10.691Z,22.87
2018-08-08T17:38:43.341Z,32.03
2018-08-08T17:41:12.425Z,40.40
2018-08-08T17:43:41.374Z,44.97
2018-08-08T17:46:09.698Z,32.47
2018-08-08T17:48:38.611Z,39.90
2018-08-08T17:51:07.466Z,84.10
2018-08-08T17:53:37.913Z,63.97
2018-08-08T17:56:06.459Z,20.10
2018-08-08T17:58:35.034Z,29.03
2018-08-08T18:01:03.601Z,43.63
2018-08-08T18:03:32.319Z,21.60
2018-08-08T18:06:00.867Z,22.63
2018-08-08T18:08:29.416Z,18.97
2018-08-08T18:10:57.968Z,23.73
2018-08-08T18:13:27.292Z,36.30
2018-08-08T18:15:55.871Z,35.27
2018-08-08T18:18:24.476Z,21.60
2018-08-08T18:20:53.063Z,21.63
2018-08-08T18:23:21.691Z,30.27
2018-08-08T18:25:50.252Z,18.43
2018-08-08T18:28:18.858Z,21.07
2018-08-08T18:30:47.458Z,28.23
2018-08-08T18:33:16.030Z,24.77
2018-08-08T18:35:44.627Z,29.33
2018-08-08T18:38:13.218Z,37.13
2018-08-08T18:40:41.782Z,21.47
2018-08-08T18:43:10.343Z,23.97
2018-08-08T18:45:38.927Z,25.10
2018-08-08T18:48:07.517Z,42.67
2018-08-08T18:50:36.682Z,25.07
2018-08-08T18:53:05.304Z,33.17
2018-08-08T18:55:33.873Z,25.57
2018-08-08T18:58:02.412Z,18.40
2018-08-08T19:00:30.988Z,44.63
2018-08-08T19:03:01.561Z,28.53
2018-08-08T19:05:30.130Z,39.50
2018-08-08T19:07:58.664Z,27.77
2018-08-08T19:10:27.230Z,38.13
2018-08-08T19:12:55.784Z,21.77
2018-08-08T19:15:24.337Z,29.10
2018-08-08T19:17:52.873Z,21.43
2018-08-08T19:20:21.473Z,14.00
2018-08-08T19:22:50.022Z,20.97
2018-08-08T19:25:18.579Z,20.60
2018-08-08T19:27:58.473Z,20.87
2018-08-08T19:30:38.081Z,20.20
2018-08-08T19:33:18.573Z,18.47
2018-08-08T19:35:55.837Z,30.80
2018-08-08T19:38:30.904Z,42.83
2018-08-08T19:41:05.046Z,70.43
2018-08-08T19:43:33.625Z,34.47
2018-08-08T19:46:07.906Z,55.73
2018-08-08T19:48:40.192Z,31.87
2018-08-08T19:51:08.769Z,36.63
2018-08-08T19:53:37.313Z,38.03
2018-08-08T19:56:10.529Z,40.60
2018-08-08T19:58:44.367Z,129.73
2018-08-08T20:01:14.622Z,34.53
2018-08-08T20:03:47.448Z,11.53
2018-08-08T20:06:16.015Z,12.90
2018-08-08T20:08:47.918Z,17.03
2018-08-08T20:11:28.432Z,14.77
2018-08-08T20:13:56.979Z,14.63
2018-08-08T20:16:27.675Z,16.20
2018-08-08T20:19:02.801Z,14.13
2018-08-08T20:21:42.321Z,36.30
2018-08-08T20:24:10.894Z,22.23
2018-08-08T20:26:39.453Z,30.10
2018-08-08T20:29:08.021Z,19.63
2018-08-08T20:31:36.616Z,14.50
2018-08-08T20:34:05.153Z,11.03
2018-08-08T20:36:33.745Z,16.70
2018-08-08T20:39:02.289Z,13.37
2018-08-08T20:41:30.862Z,14.40
2018-08-08T20:43:59.477Z,11.53
2018-08-08T20:46:31.283Z,13.00
2018-08-08T20:49:00.001Z,12.40
2018-08-08T20:51:28.556Z,20.53
2018-08-08T20:53:57.254Z,14.80
2018-08-08T20:56:27.457Z,22.87
2018-08-08T20:58:56.077Z,12.80
2018-08-08T21:01:24.688Z,17.37
2018-08-08T21:03:53.347Z,13.07
2018-08-08T21:06:21.924Z,11.40
2018-08-08T21:08:50.573Z,14.60
2018-08-08T21:11:19.144Z,13.90
2018-08-08T21:13:47.725Z,15.57
2018-08-08T21:16:16.304Z,14.23
2018-08-08T21:18:44.865Z,12.53
2018-08-08T21:21:14.273Z,15.27
2018-08-08T21:23:44.100Z,16.47
2018-08-08T21:26:13.982Z,25.30
2018-08-08T21:28:44.811Z,13.33
2018-08-08T21:31:13.471Z,19.43
2018-08-08T21:33:42.287Z,51.97
2018-08-08T21:36:11.360Z,14.00
2018-08-08T21:38:40.369Z,14.13
2018-08-08T21:41:09.019Z,39.20
2018-08-08T21:43:37.616Z,22.97
2018-08-08T21:46:06.953Z,14.57
2018-08-08T21:48:35.648Z,15.23
2018-08-08T21:51:09.545Z,13.43
2018-08-08T21:53:50.096Z,12.53
2018-08-08T21:56:30.120Z,14.27
2018-08-08T21:59:10.098Z,13.90
2018-08-08T22:01:50.106Z,14.53
2018-08-08T22:04:29.935Z,14.97
2018-08-08T22:07:09.845Z,14.20
2018-08-08T22:09:49.821Z,15.03
2018-08-08T22:12:30.063Z,12.47
2018-08-08T22:16:11.659Z,17.27
2018-08-08T22:18:52.325Z,12.30
2018-08-08T22:21:20.889Z,11.10
2018-08-08T22:23:49.755Z,12.30
2018-08-08T22:26:18.425Z,13.90
2018-08-08T22:28:47.043Z,88.63
2018-08-08T22:31:16.087Z,57.90
2018-08-08T22:33:44.936Z,52.17
2018-08-08T22:36:13.517Z,61.73
2018-08-08T22:38:42.516Z,129.53
2018-08-08T22:41:11.096Z,45.67
2018-08-08T22:43:39.802Z,23.07
2018-08-08T22:46:08.875Z,19.70
2018-08-08T22:48:37.581Z,16.73
2018-08-08T22:51:06.186Z,13.37
2018-08-08T22:53:34.777Z,18.53
2018-08-08T22:56:03.591Z,13.93
2018-08-08T22:58:32.379Z,42.57
2018-08-08T23:01:00.939Z,32.00
2018-08-08T23:03:29.518Z,23.90
2018-08-08T23:05:58.035Z,19.80
2018-08-08T23:08:28.323Z,14.73
2018-08-08T23:10:56.854Z,13.57
2018-08-08T23:13:25.443Z,11.20
2018-08-08T23:15:56.025Z,11.20
2018-08-08T23:18:24.587Z,12.33
2018-08-08T23:20:53.114Z,17.40
2018-08-08T23:23:21.794Z,27.80
2018-08-08T23:25:50.301Z,55.33
2018-08-08T23:28:18.906Z,143.80
2018-08-08T23:30:48.329Z,18.70
2018-08-08T23:33:16.886Z,28.30
2018-08-08T23:35:45.411Z,15.80
2018-08-08T23:38:13.933Z,13.57
2018-08-08T23:40:43.331Z,22.13
2018-08-08T23:43:11.909Z,18.77
2018-08-08T23:45:40.456Z,10.80
2018-08-08T23:48:09.197Z,13.43
2018-08-08T23:50:37.857Z,14.23
2018-08-08T23:53:07.035Z,14.40
2018-08-08T23:55:35.597Z,19.70
2018-08-08T23:58:04.188Z,37.03
